createdAt,value
2024-02-02T00:00:41.955Z,3.84
2024-02-02T00:03:09.604Z,3.85
2024-02-02T00:05:36.934Z,3.88
2024-02-02T00:08:04.960Z,3.89
2024-02-02T00:10:32.366Z,3.92
2024-02-02T00:12:59.920Z,3.93
2024-02-02T00:15:27.473Z,3.95
2024-02-02T00:17:55.018Z,3.96
2024-02-02T00:20:22.450Z,3.98
2024-02-02T00:22:49.870Z,4.00
2024-02-02T00:25:17.459Z,4.02
2024-02-02T00:27:44.828Z,4.02
2024-02-02T00:30:12.581Z,4.04
2024-02-02T00:32:45.759Z,4.06
2024-02-02T00:35:14.532Z,4.08
2024-02-02T00:37:41.942Z,4.08
2024-02-02T00:40:10.519Z,4.12
2024-02-02T00:42:38.439Z,4.12
2024-02-02T00:45:06.404Z,4.14
2024-02-02T00:47:33.822Z,4.14
2024-02-02T00:50:01.650Z,4.15
2024-02-02T00:52:29.580Z,4.15
2024-02-02T00:54:56.860Z,4.14
2024-02-02T00:57:24.640Z,4.15
2024-02-02T00:59:52.152Z,4.15
2024-02-02T01:02:19.880Z,4.16
2024-02-02T01:04:47.431Z,4.17
2024-02-02T01:07:17.210Z,4.19
2024-02-02T01:09:45.997Z,4.19
2024-02-02T01:12:13.515Z,4.21
2024-02-02T01:14:41.284Z,4.21
2024-02-02T01:17:08.594Z,4.23
2024-02-02T01:19:39.033Z,4.25
2024-02-02T01:22:07.166Z,4.26
2024-02-02T01:24:34.740Z,4.27
2024-02-02T01:27:02.118Z,4.28
2024-02-02T01:29:30.595Z,4.29
2024-02-02T01:31:58.013Z,4.31
2024-02-02T01:34:25.669Z,4.32
2024-02-02T01:36:53.387Z,4.34
2024-02-02T01:39:20.940Z,4.34
2024-02-02T01:41:48.393Z,4.36
2024-02-02T01:44:15.899Z,4.37
2024-02-02T01:46:47.924Z,4.39
2024-02-02T01:49:15.541Z,4.41
2024-02-02T01:51:43.100Z,4.41
2024-02-02T01:54:11.007Z,4.42
2024-02-02T01:56:38.884Z,4.42
2024-02-02T01:59:08.958Z,4.43
2024-02-02T02:01:36.448Z,4.44
2024-02-02T02:04:05.151Z,4.44
2024-02-02T02:06:32.740Z,4.45
2024-02-02T02:09:00.415Z,4.46
2024-02-02T02:11:27.972Z,4.47
2024-02-02T02:13:56.094Z,4.50
2024-02-02T02:16:23.500Z,4.50
2024-02-02T02:18:56.142Z,4.51
2024-02-02T02:21:30.592Z,4.51
2024-02-02T02:23:58.195Z,4.51
2024-02-02T02:26:27.316Z,4.52
2024-02-02T02:28:54.735Z,4.53
2024-02-02T02:31:22.242Z,4.54
2024-02-02T02:33:49.814Z,4.54
2024-02-02T02:36:17.730Z,4.55
2024-02-02T02:38:45.643Z,4.56
2024-02-02T02:41:13.100Z,4.55
2024-02-02T02:43:40.632Z,4.57
2024-02-02T02:46:08.530Z,4.58
2024-02-02T02:48:38.222Z,4.59
2024-02-02T02:51:05.954Z,4.61
2024-02-02T02:53:33.388Z,4.61
2024-02-02T02:56:00.712Z,4.62
2024-02-02T02:58:28.070Z,4.64
2024-02-02T03:00:55.710Z,4.65
2024-02-02T03:03:23.509Z,4.66
2024-02-02T03:05:50.950Z,4.66
2024-02-02T03:08:18.348Z,4.66
2024-02-02T03:10:45.679Z,4.68
2024-02-02T03:13:13.157Z,4.68
2024-02-02T03:15:41.609Z,4.69
2024-02-02T03:18:11.224Z,4.71
2024-02-02T03:20:38.602Z,4.72
2024-02-02T03:23:06.185Z,4.72
2024-02-02T03:25:33.547Z,4.72
2024-02-02T03:28:00.912Z,4.73
2024-02-02T03:30:28.653Z,4.73
2024-02-02T03:32:56.496Z,4.74
2024-02-02T03:35:25.449Z,4.75
2024-02-02T03:37:52.810Z,4.76
2024-02-02T03:40:20.119Z,4.76
2024-02-02T03:42:47.613Z,4.78
2024-02-02T03:45:15.632Z,4.79
2024-02-02T03:47:43.023Z,4.78
2024-02-02T03:50:11.009Z,4.80
2024-02-02T03:52:38.539Z,4.79
2024-02-02T03:55:06.345Z,4.81
2024-02-02T03:57:33.809Z,4.83
2024-02-02T04:00:01.237Z,4.83
2024-02-02T04:02:28.643Z,4.84
2024-02-02T04:04:56.108Z,4.87
2024-02-02T04:07:23.576Z,4.87
2024-02-02T04:09:50.955Z,4.88
2024-02-02T04:12:19.057Z,4.87
2024-02-02T04:14:46.405Z,4.88
2024-02-02T04:17:13.839Z,4.88
2024-02-02T04:19:41.604Z,4.89
2024-02-02T04:22:09.139Z,4.91
2024-02-02T04:24:36.665Z,4.92
2024-02-02T04:27:04.408Z,4.92
2024-02-02T04:29:31.830Z,4.93
2024-02-02T04:31:59.265Z,4.92
2024-02-02T04:34:26.660Z,4.92
2024-02-02T04:36:54.319Z,4.93
2024-02-02T04:39:21.719Z,4.96
2024-02-02T04:41:49.109Z,4.95
2024-02-02T04:44:16.560Z,4.96
2024-02-02T04:46:43.977Z,4.97
2024-02-02T04:49:11.716Z,4.96
2024-02-02T04:51:39.174Z,4.97
2024-02-02T04:54:06.682Z,4.98
2024-02-02T04:56:34.117Z,4.99
2024-02-02T04:59:01.486Z,4.99
2024-02-02T05:01:28.856Z,4.99
2024-02-02T05:03:56.338Z,4.98
2024-02-02T05:06:23.849Z,5.00
2024-02-02T05:08:51.410Z,5.01
2024-02-02T05:11:18.826Z,5.00
2024-02-02T05:13:46.126Z,5.02
2024-02-02T05:16:15.691Z,5.02
2024-02-02T05:18:43.889Z,5.03
2024-02-02T05:21:11.385Z,5.04
2024-02-02T05:23:43.775Z,5.05
2024-02-02T05:26:17.151Z,5.04
2024-02-02T05:28:44.810Z,5.04
2024-02-02T05:31:12.165Z,5.03
2024-02-02T05:33:39.675Z,5.02
2024-02-02T05:36:07.540Z,5.03
2024-02-02T05:38:34.933Z,5.02
2024-02-02T05:41:02.474Z,5.03
2024-02-02T05:43:30.028Z,5.02
2024-02-02T05:45:57.427Z,5.02
2024-02-02T05:48:24.948Z,5.01
2024-02-02T05:50:52.415Z,5.00
2024-02-02T05:53:19.851Z,5.00
2024-02-02T05:55:47.729Z,5.01
2024-02-02T05:58:15.516Z,5.03
2024-02-02T06:00:42.980Z,5.02
2024-02-02T06:03:10.605Z,5.04
2024-02-02T06:05:38.278Z,5.04
2024-02-02T06:08:07.920Z,5.06
2024-02-02T06:10:35.454Z,5.08
2024-02-02T06:13:03.025Z,5.10
2024-02-02T06:15:30.956Z,5.13
2024-02-02T06:17:58.886Z,5.16
2024-02-02T06:20:26.603Z,5.18
2024-02-02T06:22:53.966Z,5.20
2024-02-02T06:25:21.315Z,5.21
2024-02-02T06:27:48.670Z,5.23
2024-02-02T06:30:16.101Z,5.24
2024-02-02T06:32:47.321Z,5.25
2024-02-02T06:35:15.123Z,5.27
2024-02-02T06:37:42.724Z,5.27
2024-02-02T06:40:11.566Z,5.27
2024-02-02T06:42:39.326Z,5.28
2024-02-02T06:45:07.374Z,5.29
2024-02-02T06:47:35.000Z,5.30
2024-02-02T06:50:03.411Z,5.29
2024-02-02T06:52:31.085Z,5.30
2024-02-02T06:54:58.857Z,5.31
2024-02-02T06:57:28.098Z,5.30
2024-02-02T06:59:56.674Z,5.33
2024-02-02T07:02:34.061Z,5.33
2024-02-02T07:05:02.783Z,5.34
2024-02-02T07:07:30.733Z,5.35
2024-02-02T07:09:58.229Z,5.35
2024-02-02T07:12:40.933Z,5.35
2024-02-02T07:15:16.130Z,5.36
2024-02-02T07:17:46.023Z,5.35
2024-02-02T07:20:34.581Z,5.36
2024-02-02T07:23:03.056Z,5.33
2024-02-02T07:25:38.248Z,5.33
2024-02-02T07:28:07.763Z,5.31
2024-02-02T07:30:45.046Z,5.27
2024-02-02T07:33:24.649Z,5.26
2024-02-02T07:35:53.932Z,5.21
2024-02-02T07:38:39.950Z,5.19
2024-02-02T07:41:13.371Z,5.17
2024-02-02T07:43:40.952Z,5.12
2024-02-02T07:46:12.285Z,5.11
2024-02-02T07:48:42.295Z,5.08
2024-02-02T07:51:10.402Z,5.06
2024-02-02T07:53:37.891Z,5.04
2024-02-02T07:56:05.927Z,5.05
2024-02-02T07:58:33.303Z,5.06
2024-02-02T08:01:00.917Z,5.07
2024-02-02T08:03:28.385Z,5.08
2024-02-02T08:05:56.365Z,5.07
2024-02-02T08:08:24.107Z,5.08
2024-02-02T08:10:51.684Z,5.10
2024-02-02T08:13:20.221Z,5.12
2024-02-02T08:15:47.755Z,5.14
2024-02-02T08:18:15.256Z,5.16
2024-02-02T08:20:42.831Z,5.19
2024-02-02T08:23:10.238Z,5.22
2024-02-02T08:25:37.749Z,5.24
2024-02-02T08:28:05.550Z,5.27
2024-02-02T08:30:33.004Z,5.27
2024-02-02T08:33:00.700Z,5.31
2024-02-02T08:35:29.670Z,5.31
2024-02-02T08:38:02.483Z,5.33
2024-02-02T08:40:42.513Z,5.34
2024-02-02T08:43:18.218Z,5.37
2024-02-02T08:46:00.753Z,5.39
2024-02-02T08:48:47.786Z,5.41
2024-02-02T08:51:25.570Z,5.44
2024-02-02T08:54:07.718Z,5.47
2024-02-02T08:56:35.277Z,5.49
2024-02-02T08:59:25.877Z,5.55
2024-02-02T09:01:53.214Z,5.57
2024-02-02T09:04:36.136Z,5.60
2024-02-02T09:07:05.203Z,5.62
2024-02-02T09:09:32.857Z,5.66
2024-02-02T09:12:00.472Z,5.69
2024-02-02T09:14:28.869Z,5.71
2024-02-02T09:16:56.381Z,5.75
2024-02-02T09:19:26.947Z,5.79
2024-02-02T09:22:16.931Z,5.83
2024-02-02T09:24:47.628Z,5.88
2024-02-02T09:27:16.684Z,5.90
2024-02-02T09:29:47.986Z,5.94
2024-02-02T09:32:19.213Z,5.98
2024-02-02T09:34:47.730Z,6.03
2024-02-02T09:37:23.615Z,6.07
2024-02-02T09:39:55.874Z,6.12
2024-02-02T09:42:23.174Z,6.16
2024-02-02T09:44:58.257Z,6.20
2024-02-02T09:47:45.570Z,6.22
2024-02-02T09:50:16.221Z,6.25
2024-02-02T09:52:43.705Z,6.28
2024-02-02T09:55:33.823Z,6.30
2024-02-02T09:58:11.357Z,6.34
2024-02-02T10:01:10.147Z,6.37
2024-02-02T10:03:55.898Z,6.43
2024-02-02T10:06:46.406Z,6.50
2024-02-02T10:09:56.048Z,6.55
2024-02-02T10:12:44.547Z,6.59
2024-02-02T10:15:33.387Z,6.63
2024-02-02T10:18:16.319Z,6.64
2024-02-02T10:20:53.938Z,6.70
2024-02-02T10:23:36.616Z,6.73
2024-02-02T10:26:15.976Z,6.75
2024-02-02T10:29:05.978Z,6.77
2024-02-02T10:31:36.455Z,6.78
2024-02-02T10:34:09.930Z,6.81
2024-02-02T10:36:46.608Z,6.84
2024-02-02T10:39:21.777Z,6.86
2024-02-02T10:42:17.208Z,6.89
2024-02-02T10:45:09.092Z,6.92
2024-02-02T10:48:12.524Z,6.98
2024-02-02T10:51:10.536Z,7.02
2024-02-02T10:54:06.916Z,7.07
2024-02-02T10:56:58.448Z,7.13
2024-02-02T10:59:47.090Z,7.18
2024-02-02T11:03:02.235Z,7.23
2024-02-02T11:05:48.268Z,7.27
2024-02-02T11:08:19.704Z,7.31
2024-02-02T11:11:00.195Z,7.37
2024-02-02T11:14:02.685Z,7.42
2024-02-02T11:16:58.532Z,7.46
2024-02-02T11:19:25.867Z,7.48
2024-02-02T11:22:04.628Z,7.48
2024-02-02T11:24:51.640Z,7.50
2024-02-02T11:27:31.234Z,7.49
2024-02-02T11:30:12.002Z,7.49
2024-02-02T11:33:04.655Z,7.49
2024-02-02T11:35:48.429Z,7.49
2024-02-02T11:38:36.583Z,7.52
2024-02-02T11:41:04.902Z,7.56
2024-02-02T11:43:33.114Z,7.62
2024-02-02T11:46:02.167Z,7.69
2024-02-02T11:48:40.433Z,7.78
2024-02-02T11:51:11.851Z,7.87
2024-02-02T11:54:15.578Z,7.95
2024-02-02T11:56:51.382Z,7.99
2024-02-02T11:59:30.833Z,8.06
2024-02-02T12:02:18.537Z,8.15
2024-02-02T12:05:04.660Z,8.20
2024-02-02T12:07:38.574Z,8.27
2024-02-02T12:10:09.505Z,8.32
2024-02-02T12:12:41.942Z,8.36
2024-02-02T12:15:11.184Z,8.37
2024-02-02T12:17:40.020Z,8.34
2024-02-02T12:20:11.263Z,8.32
2024-02-02T12:22:38.884Z,8.29
2024-02-02T12:25:10.950Z,8.27
2024-02-02T12:27:38.763Z,8.25
2024-02-02T12:30:11.158Z,8.23
2024-02-02T12:32:42.838Z,8.25
2024-02-02T12:35:10.760Z,8.27
2024-02-02T12:37:50.352Z,8.26
2024-02-02T12:40:21.701Z,8.26
2024-02-02T12:42:49.749Z,8.26
2024-02-02T12:45:19.186Z,8.23
2024-02-02T12:47:48.324Z,8.19
2024-02-02T12:50:16.892Z,8.17
2024-02-02T12:52:52.465Z,8.13
2024-02-02T12:55:20.160Z,8.10
2024-02-02T12:57:47.898Z,8.09
2024-02-02T13:00:15.995Z,8.05
2024-02-02T13:02:47.752Z,8.05
2024-02-02T13:05:18.711Z,8.03
2024-02-02T13:07:53.046Z,7.99
2024-02-02T13:10:45.426Z,7.99
2024-02-02T13:13:26.856Z,7.97
2024-02-02T13:15:55.022Z,7.97
2024-02-02T13:18:25.267Z,7.96
2024-02-02T13:20:57.553Z,7.95
2024-02-02T13:23:30.385Z,7.93
2024-02-02T13:26:08.027Z,7.93
2024-02-02T13:28:42.497Z,7.92
2024-02-02T13:31:13.866Z,7.90
2024-02-02T13:33:47.366Z,7.89
2024-02-02T13:36:18.539Z,7.88
2024-02-02T13:38:48.357Z,7.87
2024-02-02T13:41:21.427Z,7.84
2024-02-02T13:44:07.444Z,7.83
2024-02-02T13:46:46.057Z,7.80
2024-02-02T13:49:34.654Z,7.78
2024-02-02T13:52:07.338Z,7.78
2024-02-02T13:54:35.065Z,7.74
2024-02-02T13:57:03.142Z,7.73
2024-02-02T13:59:30.796Z,7.71
2024-02-02T14:02:08.419Z,7.70
2024-02-02T14:04:36.088Z,7.69
2024-02-02T14:07:17.037Z,7.67
2024-02-02T14:09:45.024Z,7.66
2024-02-02T14:12:13.329Z,7.63
2024-02-02T14:14:40.824Z,7.61
2024-02-02T14:17:08.324Z,7.60
2024-02-02T14:19:35.974Z,7.59
2024-02-02T14:22:06.196Z,7.57
2024-02-02T14:24:34.365Z,7.56
2024-02-02T14:27:05.903Z,7.55
2024-02-02T14:29:44.623Z,7.53
2024-02-02T14:32:12.626Z,7.52
2024-02-02T14:34:40.373Z,7.52
2024-02-02T14:37:09.930Z,7.53
2024-02-02T14:39:37.725Z,7.52
2024-02-02T14:42:06.831Z,7.52
2024-02-02T14:44:35.278Z,7.53
2024-02-02T14:47:02.834Z,7.53
2024-02-02T14:49:30.868Z,7.54
2024-02-02T14:51:58.467Z,7.55
2024-02-02T14:54:26.913Z,7.56
2024-02-02T14:56:54.492Z,7.56
2024-02-02T14:59:29.496Z,7.58
2024-02-02T15:01:57.642Z,7.59
2024-02-02T15:04:25.464Z,7.60
2024-02-02T15:06:53.173Z,7.61
2024-02-02T15:09:21.218Z,7.61
2024-02-02T15:11:48.623Z,7.63
2024-02-02T15:14:16.414Z,7.62
2024-02-02T15:16:44.167Z,7.63
2024-02-02T15:19:11.866Z,7.64
2024-02-02T15:21:39.396Z,7.63
2024-02-02T15:24:08.046Z,7.64
2024-02-02T15:26:37.915Z,7.66
2024-02-02T15:29:05.810Z,7.66
2024-02-02T15:31:34.028Z,7.67
2024-02-02T15:34:06.318Z,7.67
2024-02-02T15:36:36.924Z,7.69
2024-02-02T15:39:18.972Z,7.70
2024-02-02T15:41:54.458Z,7.70
2024-02-02T15:44:22.387Z,7.71
2024-02-02T15:46:49.912Z,7.71
2024-02-02T15:49:17.544Z,7.72
2024-02-02T15:51:45.257Z,7.73
2024-02-02T15:54:12.926Z,7.75
2024-02-02T15:56:40.817Z,7.75
2024-02-02T15:59:08.748Z,7.75
2024-02-02T16:01:36.597Z,7.77
2024-02-02T16:04:04.790Z,7.77
2024-02-02T16:06:32.543Z,7.76
2024-02-02T16:09:00.299Z,7.78
2024-02-02T16:11:27.853Z,7.76
2024-02-02T16:13:55.377Z,7.78
2024-02-02T16:16:22.695Z,7.79
2024-02-02T16:18:50.206Z,7.81
2024-02-02T16:21:17.928Z,7.81
2024-02-02T16:23:45.350Z,7.82
2024-02-02T16:26:13.735Z,7.82
2024-02-02T16:28:41.105Z,7.83
2024-02-02T16:31:08.657Z,7.85
2024-02-02T16:33:36.576Z,7.85
2024-02-02T16:36:04.508Z,7.85
2024-02-02T16:38:35.990Z,7.86
2024-02-02T16:41:04.110Z,7.85
2024-02-02T16:43:31.872Z,7.86
2024-02-02T16:45:59.223Z,7.86
2024-02-02T16:48:26.724Z,7.87
2024-02-02T16:50:56.222Z,7.87
2024-02-02T16:53:23.868Z,7.87
2024-02-02T16:55:51.778Z,7.88
2024-02-02T16:58:19.587Z,7.88
2024-02-02T17:00:47.057Z,7.88
2024-02-02T17:03:14.835Z,7.90
2024-02-02T17:05:42.369Z,7.90
2024-02-02T17:08:09.869Z,7.91
2024-02-02T17:10:37.645Z,7.92
2024-02-02T17:13:05.203Z,7.91
2024-02-02T17:15:34.898Z,7.92
2024-02-02T17:18:02.475Z,7.91
2024-02-02T17:20:29.947Z,7.93
2024-02-02T17:22:57.796Z,7.94
2024-02-02T17:25:25.165Z,7.95
2024-02-02T17:27:52.785Z,7.96
2024-02-02T17:30:23.004Z,7.98
2024-02-02T17:32:50.687Z,8.00
2024-02-02T17:35:18.702Z,8.01
2024-02-02T17:37:46.349Z,8.00
2024-02-02T17:40:15.237Z,8.02
2024-02-02T17:42:43.521Z,8.02
2024-02-02T17:45:11.400Z,8.01
2024-02-02T17:47:38.987Z,8.00
2024-02-02T17:50:10.045Z,8.00
2024-02-02T17:52:37.521Z,8.01
2024-02-02T17:55:05.459Z,8.01
2024-02-02T17:57:33.159Z,8.00
2024-02-02T18:00:00.848Z,8.00
2024-02-02T18:02:28.365Z,8.00
2024-02-02T18:04:55.707Z,8.00
2024-02-02T18:07:29.991Z,8.00
2024-02-02T18:10:00.747Z,8.00
2024-02-02T18:12:28.389Z,8.02
2024-02-02T18:14:55.952Z,8.01
2024-02-02T18:17:23.336Z,8.01
2024-02-02T18:19:50.892Z,8.02
2024-02-02T18:22:18.695Z,8.04
2024-02-02T18:24:46.467Z,8.05
2024-02-02T18:27:13.867Z,8.05
2024-02-02T18:29:41.337Z,8.06
2024-02-02T18:32:09.111Z,8.06
2024-02-02T18:34:39.712Z,8.07
2024-02-02T18:37:07.104Z,8.06
2024-02-02T18:39:34.463Z,8.05
2024-02-02T18:42:06.551Z,8.05
2024-02-02T18:44:37.517Z,8.04
2024-02-02T18:47:05.295Z,8.05
2024-02-02T18:49:32.964Z,8.05
2024-02-02T18:52:00.320Z,8.06
2024-02-02T18:54:28.350Z,8.06
2024-02-02T18:56:56.199Z,8.08
2024-02-02T18:59:23.578Z,8.09
2024-02-02T19:01:51.213Z,8.06
2024-02-02T19:04:18.651Z,8.06
2024-02-02T19:06:46.171Z,8.05
2024-02-02T19:09:14.221Z,8.07
2024-02-02T19:11:41.675Z,8.04
2024-02-02T19:14:34.617Z,8.05
2024-02-02T19:17:01.987Z,8.05
2024-02-02T19:19:29.537Z,8.06
2024-02-02T19:21:57.502Z,8.05
2024-02-02T19:24:24.900Z,8.03
2024-02-02T19:26:54.644Z,7.97
2024-02-02T19:29:22.399Z,7.94
2024-02-02T19:31:49.734Z,7.90
2024-02-02T19:34:17.511Z,7.88
2024-02-02T19:36:45.091Z,7.86
2024-02-02T19:39:13.399Z,7.85
2024-02-02T19:41:40.879Z,7.84
2024-02-02T19:44:08.366Z,7.83
2024-02-02T19:46:35.759Z,7.83
2024-02-02T19:49:03.796Z,7.84
2024-02-02T19:51:32.061Z,7.84
2024-02-02T19:53:59.661Z,7.83
2024-02-02T19:56:27.192Z,7.84
2024-02-02T19:58:55.425Z,7.87
2024-02-02T20:01:25.856Z,7.88
2024-02-02T20:03:53.976Z,7.89
2024-02-02T20:06:21.813Z,7.90
2024-02-02T20:08:50.148Z,7.91
2024-02-02T20:11:19.365Z,7.93
2024-02-02T20:13:47.785Z,7.95
2024-02-02T20:16:17.750Z,7.96
2024-02-02T20:18:45.554Z,7.98
2024-02-02T20:21:17.551Z,8.01
2024-02-02T20:23:46.674Z,8.02
2024-02-02T20:26:21.274Z,8.05
2024-02-02T20:28:50.889Z,8.09
2024-02-02T20:31:18.791Z,8.12
2024-02-02T20:33:46.583Z,8.14
2024-02-02T20:36:14.645Z,8.16
2024-02-02T20:38:43.784Z,8.18
2024-02-02T20:41:14.991Z,8.19
2024-02-02T20:43:47.300Z,8.21
2024-02-02T20:46:15.061Z,8.23
2024-02-02T20:48:42.573Z,8.26
2024-02-02T20:51:14.117Z,8.27
2024-02-02T20:53:43.451Z,8.28
2024-02-02T20:56:10.971Z,8.28
2024-02-02T20:58:38.316Z,8.29
2024-02-02T21:01:07.107Z,8.30
2024-02-02T21:03:35.524Z,8.31
2024-02-02T21:06:03.660Z,8.32
2024-02-02T21:08:31.190Z,8.34
2024-02-02T21:10:58.754Z,8.36
2024-02-02T21:13:26.903Z,8.36
2024-02-02T21:15:54.679Z,8.36
2024-02-02T21:18:24.251Z,8.38
2024-02-02T21:20:52.497Z,8.38
2024-02-02T21:23:19.983Z,8.37
2024-02-02T21:25:48.345Z,8.37
2024-02-02T21:28:18.781Z,8.37
2024-02-02T21:30:47.856Z,8.36
2024-02-02T21:33:19.935Z,8.36
2024-02-02T21:35:48.751Z,8.36
2024-02-02T21:38:16.364Z,8.35
2024-02-02T21:40:43.769Z,8.35
2024-02-02T21:43:11.183Z,8.33
2024-02-02T21:45:39.988Z,8.33
2024-02-02T21:48:09.110Z,8.33
2024-02-02T21:50:36.671Z,8.33
2024-02-02T21:53:04.276Z,8.32
2024-02-02T21:55:31.845Z,8.34
2024-02-02T21:57:59.428Z,8.34
2024-02-02T22:00:26.877Z,8.34
2024-02-02T22:02:54.331Z,8.34
2024-02-02T22:05:23.683Z,8.34
2024-02-02T22:07:51.293Z,8.35
2024-02-02T22:10:18.890Z,8.35
2024-02-02T22:12:46.414Z,8.36
2024-02-02T22:15:13.991Z,8.39
2024-02-02T22:17:41.420Z,8.38
2024-02-02T22:20:09.681Z,8.40
2024-02-02T22:22:37.202Z,8.40
2024-02-02T22:25:04.860Z,8.42
2024-02-02T22:27:35.183Z,8.42
2024-02-02T22:30:07.521Z,8.42
2024-02-02T22:32:35.173Z,8.44
2024-02-02T22:35:02.709Z,8.46
2024-02-02T22:37:30.380Z,8.48
2024-02-02T22:39:58.088Z,8.48
2024-02-02T22:42:25.655Z,8.49
2024-02-02T22:44:55.301Z,8.50
2024-02-02T22:47:22.680Z,8.51
2024-02-02T22:49:50.226Z,8.51
2024-02-02T22:52:19.163Z,8.51
2024-02-02T22:54:46.818Z,8.51
2024-02-02T22:57:14.421Z,8.51
2024-02-02T22:59:45.350Z,8.52
2024-02-02T23:02:18.093Z,8.53
2024-02-02T23:04:45.549Z,8.53
2024-02-02T23:07:12.971Z,8.54
2024-02-02T23:09:40.335Z,8.54
2024-02-02T23:12:08.157Z,8.54
2024-02-02T23:14:35.592Z,8.57
2024-02-02T23:17:02.993Z,8.57
2024-02-02T23:19:30.699Z,8.58
2024-02-02T23:21:58.247Z,8.58
2024-02-02T23:24:25.867Z,8.59
2024-02-02T23:26:54.631Z,8.61
2024-02-02T23:29:22.108Z,8.62
2024-02-02T23:31:49.672Z,8.65
2024-02-02T23:34:17.446Z,8.68
2024-02-02T23:36:44.975Z,8.72
2024-02-02T23:39:13.488Z,8.76
2024-02-02T23:41:40.848Z,8.78
2024-02-02T23:44:08.222Z,8.82
2024-02-02T23:46:35.572Z,8.86
2024-02-02T23:49:03.485Z,8.87
2024-02-02T23:51:31.102Z,8.88
2024-02-02T23:53:58.706Z,8.85
2024-02-02T23:56:26.032Z,8.87
2024-02-02T23:58:53.641Z,8.88
